createdAt,value
2016-09-06T00:00:31.926Z,999.18
2016-09-06T00:01:31.927Z,999.2
2016-09-06T00:02:31.929Z,999.23
2016-09-06T00:03:31.928Z,999.15
2016-09-06T00:04:31.930Z,999.19
2016-09-06T00:05:31.930Z,999.19
2016-09-06T00:06:31.931Z,999.13
2016-09-06T00:07:31.932Z,999.12
2016-09-06T00:08:31.933Z,999.14
2016-09-06T00:09:31.934Z,999.14
2016-09-06T00:10:31.934Z,999.14
2016-09-06T00:11:31.934Z,999.15
2016-09-06T00:12:31.937Z,999.15
2016-09-06T00:13:31.938Z,999.12
2016-09-06T00:14:31.937Z,999.13
2016-09-06T00:15:31.937Z,999.18
2016-09-06T00:16:31.940Z,999.15
2016-09-06T00:17:31.939Z,999.18
2016-09-06T00:18:31.941Z,999.17
2016-09-06T00:19:31.942Z,999.13
2016-09-06T00:20:31.943Z,999.17
2016-09-06T00:21:31.942Z,999.16
2016-09-06T00:22:31.944Z,999.18
2016-09-06T00:23:31.945Z,999.16
2016-09-06T00:24:31.946Z,999.13
2016-09-06T00:25:31.946Z,999.21
2016-09-06T00:26:31.947Z,999.23
2016-09-06T00:27:31.963Z,999.22
2016-09-06T00:28:31.948Z,999.3
2016-09-06T00:29:31.949Z,999.31
2016-09-06T00:30:31.950Z,999.32
2016-09-06T00:31:31.967Z,999.34
2016-09-06T00:32:31.956Z,999.35
2016-09-06T00:33:31.961Z,999.31
2016-09-06T00:34:32.103Z,999.35
2016-09-06T00:35:31.962Z,999.36
2016-09-06T00:36:31.954Z,999.41
2016-09-06T00:37:31.966Z,999.44
2016-09-06T00:38:31.956Z,999.39
2016-09-06T00:39:31.961Z,999.44
2016-09-06T00:40:31.983Z,999.46
2016-09-06T00:41:31.969Z,999.41
2016-09-06T00:42:31.966Z,999.43
2016-09-06T00:43:31.967Z,999.36
2016-09-06T00:44:31.968Z,999.41
2016-09-06T00:45:31.977Z,999.4
2016-09-06T00:46:31.970Z,999.38
2016-09-06T00:47:31.973Z,999.4
2016-09-06T00:48:31.969Z,999.4
2016-09-06T00:49:31.974Z,999.36
2016-09-06T00:50:31.972Z,999.38
2016-09-06T00:51:31.972Z,999.4
2016-09-06T00:52:31.974Z,999.41
2016-09-06T00:53:31.973Z,999.45
2016-09-06T00:54:31.976Z,999.47
2016-09-06T00:55:31.978Z,999.43
2016-09-06T00:56:31.974Z,999.45
2016-09-06T00:57:31.979Z,999.47
2016-09-06T00:58:31.977Z,999.47
2016-09-06T00:59:31.974Z,999.44
2016-09-06T01:00:31.978Z,999.45
2016-09-06T01:01:31.978Z,999.5
2016-09-06T01:02:31.981Z,999.46
2016-09-06T01:03:31.979Z,999.45
2016-09-06T01:04:31.980Z,999.47
2016-09-06T01:05:31.984Z,999.46
2016-09-06T01:06:31.986Z,999.47
2016-09-06T01:07:31.979Z,999.44
2016-09-06T01:08:31.983Z,999.42
2016-09-06T01:09:31.980Z,999.41
2016-09-06T01:10:31.984Z,999.44
2016-09-06T01:11:31.986Z,999.4
2016-09-06T01:12:31.983Z,999.45
2016-09-06T01:13:31.998Z,999.46
2016-09-06T01:14:31.987Z,999.43
2016-09-06T01:15:31.985Z,999.37
2016-09-06T01:16:31.986Z,999.35
2016-09-06T01:17:31.988Z,999.33
2016-09-06T01:18:31.987Z,999.36
2016-09-06T01:19:31.990Z,999.36
2016-09-06T01:20:31.989Z,999.32
2016-09-06T01:21:31.990Z,999.27
2016-09-06T01:22:31.990Z,999.27
2016-09-06T01:23:31.991Z,999.26
2016-09-06T01:24:31.991Z,999.23
2016-09-06T01:25:31.993Z,999.2
2016-09-06T01:26:31.995Z,999.27
2016-09-06T01:27:31.994Z,999.24
2016-09-06T01:28:31.995Z,999.22
2016-09-06T01:29:31.996Z,999.21
2016-09-06T01:30:31.997Z,999.2
2016-09-06T01:31:32.004Z,999.19
2016-09-06T01:32:31.999Z,999.21
2016-09-06T01:33:32.006Z,999.19
2016-09-06T01:34:32.301Z,999.21
2016-09-06T01:35:32.010Z,999.23
2016-09-06T01:36:32.009Z,999.29
2016-09-06T01:37:32.011Z,999.28
2016-09-06T01:38:32.010Z,999.28
2016-09-06T01:39:32.008Z,999.34
2016-09-06T01:40:32.015Z,999.33
2016-09-06T01:41:32.011Z,999.28
2016-09-06T01:42:32.016Z,999.26
2016-09-06T01:43:32.013Z,999.31
2016-09-06T01:44:32.013Z,999.32
2016-09-06T01:45:32.014Z,999.32
2016-09-06T01:46:32.015Z,999.33
2016-09-06T01:47:32.013Z,999.3
2016-09-06T01:48:32.016Z,999.32
2016-09-06T01:49:32.024Z,999.31
2016-09-06T01:50:32.018Z,999.31
2016-09-06T01:51:32.017Z,999.33
2016-09-06T01:52:32.018Z,999.33
2016-09-06T01:53:32.022Z,999.36
2016-09-06T01:54:32.018Z,999.39
2016-09-06T01:55:32.020Z,999.4
2016-09-06T01:56:32.022Z,999.36
2016-09-06T01:57:32.019Z,999.4
2016-09-06T01:58:32.022Z,999.4
2016-09-06T01:59:32.025Z,999.39
2016-09-06T02:00:32.022Z,999.37
2016-09-06T02:01:32.023Z,999.39
2016-09-06T02:02:32.029Z,999.37
2016-09-06T02:03:32.022Z,999.36
2016-09-06T02:04:32.026Z,999.34
2016-09-06T02:05:32.025Z,999.4
2016-09-06T02:06:32.027Z,999.41
2016-09-06T02:07:32.026Z,999.44
2016-09-06T02:08:32.030Z,999.49
2016-09-06T02:09:32.030Z,999.48
2016-09-06T02:10:32.026Z,999.5
2016-09-06T02:11:32.028Z,999.52
2016-09-06T02:12:32.029Z,999.52
2016-09-06T02:13:32.028Z,999.5
2016-09-06T02:14:32.022Z,999.52
2016-09-06T02:15:32.031Z,999.57
2016-09-06T02:16:32.028Z,999.52
2016-09-06T02:17:32.024Z,999.51
2016-09-06T02:18:32.031Z,999.51
2016-09-06T02:19:32.029Z,999.54
2016-09-06T02:20:32.032Z,999.5
2016-09-06T02:21:32.031Z,999.53
2016-09-06T02:22:32.025Z,999.54
2016-09-06T02:23:32.037Z,999.56
2016-09-06T02:24:32.033Z,999.55
2016-09-06T02:25:32.026Z,999.55
2016-09-06T02:26:32.035Z,999.56
2016-09-06T02:27:32.035Z,999.57
2016-09-06T02:28:32.027Z,999.53
2016-09-06T02:29:32.028Z,999.56
2016-09-06T02:30:32.036Z,999.55
2016-09-06T02:31:32.030Z,999.55
2016-09-06T02:32:32.040Z,999.54
2016-09-06T02:33:32.028Z,999.55
2016-09-06T02:34:32.078Z,999.54
2016-09-06T02:35:32.031Z,999.54
2016-09-06T02:36:32.032Z,999.57
2016-09-06T02:37:32.041Z,999.56
2016-09-06T02:38:32.043Z,999.58
2016-09-06T02:39:32.032Z,999.54
2016-09-06T02:40:32.053Z,999.52
2016-09-06T02:41:32.053Z,999.54
2016-09-06T02:42:32.052Z,999.52
2016-09-06T02:43:32.052Z,999.52
2016-09-06T02:44:32.033Z,999.49
2016-09-06T02:45:32.033Z,999.47
2016-09-06T02:46:32.034Z,999.48
2016-09-06T02:47:32.056Z,999.5
2016-09-06T02:48:32.052Z,999.5
2016-09-06T02:49:32.037Z,999.56
2016-09-06T02:50:32.056Z,999.56
2016-09-06T02:51:32.033Z,999.6
2016-09-06T02:52:32.036Z,999.58
2016-09-06T02:53:32.035Z,999.53
2016-09-06T02:54:32.040Z,999.55
2016-09-06T02:55:32.037Z,999.59
2016-09-06T02:56:32.041Z,999.59
2016-09-06T02:57:32.040Z,999.59
2016-09-06T02:58:32.041Z,999.63
2016-09-06T02:59:32.038Z,999.67
2016-09-06T03:00:32.042Z,999.56
2016-09-06T03:01:32.040Z,999.65
2016-09-06T03:02:32.043Z,999.65
2016-09-06T03:03:32.044Z,999.68
2016-09-06T03:04:32.043Z,999.73
2016-09-06T03:05:32.034Z,999.73
2016-09-06T03:06:32.046Z,999.76
2016-09-06T03:07:32.045Z,999.77
2016-09-06T03:08:32.035Z,999.77
2016-09-06T03:09:32.039Z,999.8
2016-09-06T03:10:32.035Z,999.82
2016-09-06T03:11:32.036Z,999.79
2016-09-06T03:12:32.039Z,999.82
2016-09-06T03:13:32.037Z,999.82
2016-09-06T03:14:32.035Z,999.85
2016-09-06T03:15:32.036Z,999.84
2016-09-06T03:16:32.035Z,999.83
2016-09-06T03:17:32.036Z,999.85
2016-09-06T03:18:32.036Z,999.86
2016-09-06T03:19:32.039Z,999.83
2016-09-06T03:20:32.036Z,999.85
2016-09-06T03:21:32.036Z,999.83
2016-09-06T03:22:32.037Z,999.83
2016-09-06T03:23:32.038Z,999.88
2016-09-06T03:24:32.037Z,999.88
2016-09-06T03:25:32.037Z,999.85
2016-09-06T03:26:32.037Z,999.86
2016-09-06T03:27:32.037Z,999.87
2016-09-06T03:28:32.038Z,999.87
2016-09-06T03:29:32.042Z,999.86
2016-09-06T03:30:32.040Z,999.88
2016-09-06T03:31:32.038Z,999.87
2016-09-06T03:32:32.038Z,999.86
2016-09-06T03:33:32.038Z,999.91
2016-09-06T03:34:32.188Z,999.91
2016-09-06T03:35:32.037Z,999.88
2016-09-06T03:36:32.038Z,999.92
2016-09-06T03:37:32.042Z,999.93
2016-09-06T03:38:32.038Z,999.91
2016-09-06T03:39:32.042Z,999.9
2016-09-06T03:40:32.038Z,999.92
2016-09-06T03:41:32.039Z,999.95
2016-09-06T03:42:32.037Z,999.99
2016-09-06T03:43:32.040Z,999.94
2016-09-06T03:44:32.037Z,999.94
2016-09-06T03:45:32.039Z,999.93
2016-09-06T03:46:32.036Z,999.96
2016-09-06T03:47:32.037Z,999.93
2016-09-06T03:48:32.037Z,999.98
2016-09-06T03:49:32.038Z,999.96
2016-09-06T03:50:32.037Z,999.96
2016-09-06T03:51:32.038Z,999.96
2016-09-06T03:52:32.039Z,999.98
2016-09-06T03:53:32.038Z,1000.03
2016-09-06T03:54:32.037Z,999.99
2016-09-06T03:55:32.037Z,1000.03
2016-09-06T03:56:32.038Z,1000.04
2016-09-06T03:57:32.036Z,1000.09
2016-09-06T03:58:32.037Z,1000.02
2016-09-06T03:59:32.036Z,1000.05
2016-09-06T04:00:32.037Z,1000.06
2016-09-06T04:01:32.035Z,1000.03
2016-09-06T04:02:32.038Z,1000.08
2016-09-06T04:03:32.036Z,1000.06
2016-09-06T04:04:32.035Z,1000.07
2016-09-06T04:05:32.035Z,1000.1
2016-09-06T04:06:32.038Z,1000.08
2016-09-06T04:07:32.037Z,1000.04
2016-09-06T04:08:32.034Z,1000.04
2016-09-06T04:09:32.035Z,1000.07
2016-09-06T04:10:32.035Z,1000.02
2016-09-06T04:11:32.033Z,1000.03
2016-09-06T04:12:32.036Z,1000.03
2016-09-06T04:13:32.034Z,1000
2016-09-06T04:14:32.036Z,1000.03
2016-09-06T04:15:32.034Z,1000.02
2016-09-06T04:16:32.034Z,1000.05
2016-09-06T04:17:32.033Z,1000.01
2016-09-06T04:18:32.035Z,1000.01
2016-09-06T04:19:32.032Z,1000.02
2016-09-06T04:20:32.033Z,999.99
2016-09-06T04:21:32.032Z,999.97
2016-09-06T04:22:32.036Z,999.96
2016-09-06T04:23:32.031Z,999.96
2016-09-06T04:24:32.034Z,999.95
2016-09-06T04:25:32.037Z,999.96
2016-09-06T04:26:32.031Z,999.97
2016-09-06T04:27:32.032Z,999.98
2016-09-06T04:28:32.040Z,999.98
2016-09-06T04:29:32.030Z,999.97
2016-09-06T04:30:32.033Z,999.99
2016-09-06T04:31:32.032Z,1000
2016-09-06T04:32:32.031Z,1000.04
2016-09-06T04:33:32.033Z,1000.04
2016-09-06T04:34:32.132Z,1000.05
2016-09-06T04:35:32.033Z,1000.06
2016-09-06T04:36:32.031Z,1000.04
2016-09-06T04:37:32.043Z,1000.07
2016-09-06T04:38:32.034Z,1000.07
2016-09-06T04:39:32.030Z,1000.03
2016-09-06T04:40:32.030Z,1000.07
2016-09-06T04:41:32.029Z,1000.05
2016-09-06T04:42:32.030Z,1000.08
2016-09-06T04:43:32.031Z,1000.04
2016-09-06T04:44:32.028Z,1000.06
2016-09-06T04:45:32.034Z,1000.06
2016-09-06T04:46:32.029Z,1000.07
2016-09-06T04:47:32.030Z,1000.07
2016-09-06T04:48:32.028Z,1000.12
2016-09-06T04:49:32.028Z,1000.13
2016-09-06T04:50:32.028Z,1000.11
2016-09-06T04:51:32.028Z,1000.13
2016-09-06T04:52:32.028Z,1000.15
2016-09-06T04:53:32.028Z,1000.14
2016-09-06T04:54:32.029Z,1000.17
2016-09-06T04:55:32.027Z,1000.17
2016-09-06T04:56:32.027Z,1000.17
2016-09-06T04:57:32.031Z,1000.2
2016-09-06T04:58:32.035Z,1000.2
2016-09-06T04:59:32.027Z,1000.19
2016-09-06T05:00:32.027Z,1000.22
2016-09-06T05:01:32.027Z,1000.24
2016-09-06T05:02:32.027Z,1000.23
2016-09-06T05:03:32.027Z,1000.22
2016-09-06T05:04:32.027Z,1000.28
2016-09-06T05:05:32.030Z,1000.27
2016-09-06T05:06:32.026Z,1000.27
2016-09-06T05:07:32.026Z,1000.26
2016-09-06T05:08:32.026Z,1000.3
2016-09-06T05:09:32.027Z,1000.3
2016-09-06T05:10:32.025Z,1000.25
2016-09-06T05:11:32.027Z,1000.3
2016-09-06T05:12:32.026Z,1000.29
2016-09-06T05:13:32.028Z,1000.31
2016-09-06T05:14:32.026Z,1000.3
2016-09-06T05:15:32.027Z,1000.32
2016-09-06T05:16:32.026Z,1000.29
2016-09-06T05:17:32.026Z,1000.33
2016-09-06T05:18:32.025Z,1000.32
2016-09-06T05:19:32.026Z,1000.32
2016-09-06T05:20:32.028Z,1000.3
2016-09-06T05:21:32.026Z,1000.33
2016-09-06T05:22:32.025Z,1000.33
2016-09-06T05:23:32.028Z,1000.32
2016-09-06T05:24:32.025Z,1000.31
2016-09-06T05:25:32.027Z,1000.3
2016-09-06T05:26:32.028Z,1000.33
2016-09-06T05:27:32.029Z,1000.29
2016-09-06T05:28:32.028Z,1000.33
2016-09-06T05:29:32.030Z,1000.33
2016-09-06T05:30:32.029Z,1000.36
2016-09-06T05:31:32.033Z,1000.38
2016-09-06T05:32:32.032Z,1000.31
2016-09-06T05:33:32.034Z,1000.39
2016-09-06T05:34:32.086Z,1000.38
2016-09-06T05:35:32.035Z,1000.41
2016-09-06T05:36:32.039Z,1000.39
2016-09-06T05:37:32.039Z,1000.41
2016-09-06T05:38:32.048Z,1000.36
2016-09-06T05:39:32.042Z,1000.38
2016-09-06T05:40:32.044Z,1000.36
2016-09-06T05:41:32.046Z,1000.34
2016-09-06T05:42:32.051Z,1000.4
2016-09-06T05:43:32.049Z,1000.4
2016-09-06T05:44:32.052Z,1000.39
2016-09-06T05:45:32.056Z,1000.41
2016-09-06T05:46:32.056Z,1000.44
2016-09-06T05:47:32.057Z,1000.43
2016-09-06T05:48:32.058Z,1000.47
2016-09-06T05:49:32.060Z,1000.46
2016-09-06T05:50:32.062Z,1000.51
2016-09-06T05:51:32.063Z,1000.5
2016-09-06T05:52:32.065Z,1000.47
2016-09-06T05:53:32.067Z,1000.45
2016-09-06T05:54:32.068Z,1000.46
2016-09-06T05:55:32.070Z,1000.49
2016-09-06T05:56:32.071Z,1000.49
2016-09-06T05:57:32.072Z,1000.51
2016-09-06T05:58:32.073Z,1000.53
2016-09-06T05:59:32.075Z,1000.56
2016-09-06T06:00:32.078Z,1000.61
2016-09-06T06:01:32.076Z,1000.6
2016-09-06T06:02:32.081Z,1000.61
2016-09-06T06:03:32.080Z,1000.56
2016-09-06T06:04:32.128Z,1000.58
2016-09-06T06:05:32.087Z,1000.59
2016-09-06T06:06:32.087Z,1000.57
2016-09-06T06:07:32.092Z,1000.56
2016-09-06T06:08:32.085Z,1000.6
2016-09-06T06:09:32.100Z,1000.62
2016-09-06T06:10:32.090Z,1000.57
2016-09-06T06:11:32.104Z,1000.59
2016-09-06T06:12:32.091Z,1000.59
2016-09-06T06:13:32.095Z,1000.64
2016-09-06T06:14:32.098Z,1000.6
2016-09-06T06:15:32.150Z,1000.63
2016-09-06T06:16:32.095Z,1000.65
2016-09-06T06:17:32.097Z,1000.67
2016-09-06T06:18:32.099Z,1000.68
2016-09-06T06:19:32.097Z,1000.64
2016-09-06T06:20:32.099Z,1000.65
2016-09-06T06:21:32.101Z,1000.65
2016-09-06T06:22:32.102Z,1000.67
2016-09-06T06:23:32.103Z,1000.7
2016-09-06T06:24:32.116Z,1000.69
2016-09-06T06:25:32.106Z,1000.69
2016-09-06T06:26:32.106Z,1000.71
2016-09-06T06:27:32.108Z,1000.74
2016-09-06T06:28:32.114Z,1000.7
2016-09-06T06:29:32.110Z,1000.77
2016-09-06T06:30:32.114Z,1000.71
2016-09-06T06:31:32.117Z,1000.73
2016-09-06T06:32:32.129Z,1000.72
2016-09-06T06:33:32.125Z,1000.74
2016-09-06T06:34:32.170Z,1000.8
2016-09-06T06:35:32.123Z,1000.82
2016-09-06T06:36:32.137Z,1000.82
2016-09-06T06:37:32.123Z,1000.82
2016-09-06T06:38:32.126Z,1000.84
2016-09-06T06:39:32.129Z,1000.79
2016-09-06T06:40:32.133Z,1000.8
2016-09-06T06:41:32.134Z,1000.8
2016-09-06T06:42:32.138Z,1000.75
2016-09-06T06:43:32.142Z,1000.82
2016-09-06T06:44:32.145Z,1000.83
2016-09-06T06:45:32.150Z,1000.79
2016-09-06T06:46:32.154Z,1000.76
2016-09-06T06:47:32.165Z,1000.81
2016-09-06T06:48:32.163Z,1000.81
2016-09-06T06:49:32.173Z,1000.72
2016-09-06T06:50:32.171Z,1000.74
2016-09-06T06:51:32.178Z,1000.69
2016-09-06T06:52:32.181Z,1000.66
2016-09-06T06:53:32.189Z,1000.64
2016-09-06T06:54:32.191Z,1000.62
2016-09-06T06:55:32.198Z,1000.67
2016-09-06T06:56:32.199Z,1000.61
2016-09-06T06:57:32.214Z,1000.65
2016-09-06T06:58:32.210Z,1000.68
2016-09-06T06:59:32.214Z,1000.66
2016-09-06T07:00:32.220Z,1000.67
2016-09-06T07:01:32.233Z,1000.68
2016-09-06T07:02:32.234Z,1000.66
2016-09-06T07:03:32.236Z,1000.68
2016-09-06T07:04:32.264Z,1000.66
2016-09-06T07:05:32.248Z,1000.66
2016-09-06T07:06:32.254Z,1000.64
2016-09-06T07:07:32.269Z,1000.66
2016-09-06T07:08:32.266Z,1000.64
2016-09-06T07:09:32.271Z,1000.68
2016-09-06T07:10:32.277Z,1000.66
2016-09-06T07:11:32.281Z,1000.66
2016-09-06T07:12:32.297Z,1000.65
2016-09-06T07:13:32.291Z,1000.71
2016-09-06T07:14:32.298Z,1000.66
2016-09-06T07:15:32.302Z,1000.7
2016-09-06T07:16:32.307Z,1000.66
2016-09-06T07:17:32.322Z,1000.64
2016-09-06T07:18:32.325Z,1000.71
2016-09-06T07:19:32.327Z,1000.67
2016-09-06T07:20:32.331Z,1000.67
2016-09-06T07:21:32.334Z,1000.68
2016-09-06T07:22:32.337Z,1000.67
2016-09-06T07:23:32.341Z,1000.71
2016-09-06T07:24:32.345Z,1000.7
2016-09-06T07:25:32.350Z,1000.67
2016-09-06T07:26:32.355Z,1000.7
2016-09-06T07:27:32.361Z,1000.68
2016-09-06T07:28:32.366Z,1000.67
2016-09-06T07:29:32.370Z,1000.74
2016-09-06T07:30:32.377Z,1000.72
2016-09-06T07:31:32.389Z,1000.79
2016-09-06T07:32:32.391Z,1000.76
2016-09-06T07:33:32.393Z,1000.8
2016-09-06T07:34:32.455Z,1000.84
2016-09-06T07:35:32.405Z,1000.78
2016-09-06T07:36:32.412Z,1000.79
2016-09-06T07:37:32.416Z,1000.85
2016-09-06T07:38:32.422Z,1000.83
2016-09-06T07:39:32.428Z,1000.82
2016-09-06T07:40:32.434Z,1000.84
2016-09-06T07:41:32.441Z,1000.81
2016-09-06T07:42:32.446Z,1000.81
2016-09-06T07:43:32.454Z,1000.83
2016-09-06T07:44:32.461Z,1000.82
2016-09-06T07:45:32.467Z,1000.85
2016-09-06T07:46:32.474Z,1000.81
2016-09-06T07:47:32.480Z,1000.82
2016-09-06T07:48:32.486Z,1000.82
2016-09-06T07:49:32.492Z,1000.89
2016-09-06T07:50:32.503Z,1000.86
2016-09-06T07:51:32.504Z,1000.89
2016-09-06T07:52:32.510Z,1000.86
2016-09-06T07:53:32.516Z,1000.88
2016-09-06T07:54:32.521Z,1000.94
2016-09-06T07:55:32.526Z,1000.92
2016-09-06T07:56:32.532Z,1000.91
2016-09-06T07:57:32.537Z,1000.89
2016-09-06T07:58:32.541Z,1000.91
2016-09-06T07:59:32.547Z,1000.93
2016-09-06T08:00:32.555Z,1000.92
2016-09-06T08:01:32.557Z,1000.92
2016-09-06T08:02:32.563Z,1000.94
2016-09-06T08:03:32.571Z,1000.92
2016-09-06T08:04:32.575Z,1000.92
2016-09-06T08:05:32.580Z,1000.95
2016-09-06T08:06:32.587Z,1000.96
2016-09-06T08:07:32.591Z,1000.9
2016-09-06T08:08:32.598Z,1000.92
2016-09-06T08:09:32.604Z,1000.91
2016-09-06T08:10:32.610Z,1000.89
2016-09-06T08:11:32.616Z,1000.94
2016-09-06T08:12:32.621Z,1000.9
2016-09-06T08:13:32.628Z,1000.92
2016-09-06T08:14:32.636Z,1000.88
2016-09-06T08:15:32.641Z,1000.9
2016-09-06T08:16:32.645Z,1000.86
2016-09-06T08:17:32.662Z,1000.89
2016-09-06T08:18:32.659Z,1000.88
2016-09-06T08:19:32.666Z,1000.83
2016-09-06T08:20:32.671Z,1000.85
2016-09-06T08:21:32.679Z,1000.87
2016-09-06T08:22:32.686Z,1000.85
2016-09-06T08:23:32.690Z,1000.86
2016-09-06T08:24:32.696Z,1000.86
2016-09-06T08:25:32.781Z,1000.84
2016-09-06T08:26:32.709Z,1000.79
2016-09-06T08:27:32.723Z,1000.83
2016-09-06T08:28:32.725Z,1000.83
2016-09-06T08:29:32.729Z,1000.81
2016-09-06T08:30:32.737Z,1000.78
2016-09-06T08:31:32.749Z,1000.78
2016-09-06T08:32:32.748Z,1000.74
2016-09-06T08:33:32.754Z,1000.75
2016-09-06T08:34:32.809Z,1000.79
2016-09-06T08:35:32.766Z,1000.79
2016-09-06T08:36:32.771Z,1000.78
2016-09-06T08:37:32.777Z,1000.76
2016-09-06T08:38:32.782Z,1000.78
2016-09-06T08:39:32.787Z,1000.79
2016-09-06T08:40:32.804Z,1000.77
2016-09-06T08:41:32.803Z,1000.74
2016-09-06T08:42:32.802Z,1000.73
2016-09-06T08:43:32.809Z,1000.74
2016-09-06T08:44:32.812Z,1000.79
2016-09-06T08:45:32.816Z,1000.79
2016-09-06T08:46:32.820Z,1000.79
2016-09-06T08:47:32.824Z,1000.72
2016-09-06T08:48:32.829Z,1000.74
2016-09-06T08:49:32.833Z,1000.77
2016-09-06T08:50:32.837Z,1000.74
2016-09-06T08:51:32.841Z,1000.78
2016-09-06T08:52:32.845Z,1000.73
2016-09-06T08:53:32.849Z,1000.76
2016-09-06T08:54:32.852Z,1000.79
2016-09-06T08:55:32.867Z,1000.8
2016-09-06T08:56:32.864Z,1000.74
2016-09-06T08:57:32.867Z,1000.8
2016-09-06T08:58:32.868Z,1000.77
2016-09-06T08:59:32.874Z,1000.81
2016-09-06T09:00:32.876Z,1000.78
2016-09-06T09:01:32.878Z,1000.79
2016-09-06T09:02:32.882Z,1000.81
2016-09-06T09:03:32.890Z,1000.81
2016-09-06T09:04:32.890Z,1000.84
2016-09-06T09:05:32.893Z,1000.83
2016-09-06T09:06:32.897Z,1000.81
2016-09-06T09:07:32.904Z,1000.78
2016-09-06T09:08:32.908Z,1000.78
2016-09-06T09:09:32.907Z,1000.78
2016-09-06T09:10:32.913Z,1000.75
2016-09-06T09:11:32.916Z,1000.76
2016-09-06T09:12:32.919Z,1000.65
2016-09-06T09:13:32.922Z,1000.69
2016-09-06T09:14:32.935Z,1000.69
2016-09-06T09:15:32.933Z,1000.71
2016-09-06T09:16:32.936Z,1000.71
2016-09-06T09:17:32.946Z,1000.69
2016-09-06T09:18:32.939Z,1000.68
2016-09-06T09:19:32.944Z,1000.73
2016-09-06T09:20:32.952Z,1000.72
2016-09-06T09:21:32.951Z,1000.71
2016-09-06T09:22:32.953Z,1000.72
2016-09-06T09:23:32.956Z,1000.7
2016-09-06T09:24:32.960Z,1000.72
2016-09-06T09:25:32.963Z,1000.75
2016-09-06T09:26:32.965Z,1000.76
2016-09-06T09:27:32.977Z,1000.71
2016-09-06T09:28:32.976Z,1000.73
2016-09-06T09:29:32.978Z,1000.69
2016-09-06T09:30:32.980Z,1000.68
2016-09-06T09:31:32.983Z,1000.67
2016-09-06T09:32:32.986Z,1000.67
2016-09-06T09:33:32.988Z,1000.7
2016-09-06T09:34:33.293Z,1000.66
2016-09-06T09:35:32.995Z,1000.64
2016-09-06T09:36:32.998Z,1000.62
2016-09-06T09:37:33.002Z,1000.59
2016-09-06T09:38:33.005Z,1000.57
2016-09-06T09:39:33.009Z,1000.54
2016-09-06T09:40:33.013Z,1000.5
2016-09-06T09:41:33.014Z,1000.52
2016-09-06T09:42:33.020Z,1000.57
2016-09-06T09:43:33.025Z,1000.57
2016-09-06T09:44:33.025Z,1000.6
2016-09-06T09:45:33.028Z,1000.62
2016-09-06T09:46:33.031Z,1000.59
2016-09-06T09:47:33.038Z,1000.55
2016-09-06T09:48:33.037Z,1000.61
2016-09-06T09:49:33.043Z,1000.62
2016-09-06T09:50:33.045Z,1000.57
2016-09-06T09:51:33.046Z,1000.57
2016-09-06T09:52:33.049Z,1000.53
2016-09-06T09:53:33.053Z,1000.52
2016-09-06T09:54:33.056Z,1000.54
2016-09-06T09:55:33.104Z,1000.52
2016-09-06T09:56:33.062Z,1000.5
2016-09-06T09:57:33.066Z,1000.45
2016-09-06T09:58:33.069Z,1000.43
2016-09-06T09:59:33.080Z,1000.43
2016-09-06T10:00:33.074Z,1000.43
2016-09-06T10:01:33.078Z,1000.45
2016-09-06T10:02:33.082Z,1000.44
2016-09-06T10:03:33.085Z,1000.41
2016-09-06T10:04:33.088Z,1000.39
2016-09-06T10:05:33.091Z,1000.41
2016-09-06T10:06:33.094Z,1000.4
2016-09-06T10:07:33.098Z,1000.43
2016-09-06T10:08:33.101Z,1000.44
2016-09-06T10:09:33.104Z,1000.42
2016-09-06T10:10:33.108Z,1000.48
2016-09-06T10:11:33.112Z,1000.43
2016-09-06T10:12:33.115Z,1000.41
2016-09-06T10:13:33.117Z,1000.45
2016-09-06T10:14:33.122Z,1000.45
2016-09-06T10:15:33.125Z,1000.43
2016-09-06T10:16:33.129Z,1000.44
2016-09-06T10:17:33.135Z,1000.43
2016-09-06T10:18:33.136Z,1000.42
2016-09-06T10:19:33.139Z,1000.42
2016-09-06T10:20:33.142Z,1000.4
2016-09-06T10:21:33.147Z,1000.38
2016-09-06T10:22:33.150Z,1000.37
2016-09-06T10:23:33.154Z,1000.34
2016-09-06T10:24:33.156Z,1000.34
2016-09-06T10:25:33.161Z,1000.31
2016-09-06T10:26:33.166Z,1000.33
2016-09-06T10:27:33.168Z,1000.32
2016-09-06T10:28:33.171Z,1000.3
2016-09-06T10:29:33.175Z,1000.29
2016-09-06T10:30:33.179Z,1000.29
2016-09-06T10:31:33.182Z,1000.26
2016-09-06T10:32:33.185Z,1000.35
2016-09-06T10:33:33.190Z,1000.35
2016-09-06T10:34:33.396Z,1000.3
2016-09-06T10:35:33.208Z,1000.27
2016-09-06T10:36:33.210Z,1000.31
2016-09-06T10:38:33.213Z,1000.27
2016-09-06T10:39:33.212Z,1000.23
2016-09-06T10:40:33.217Z,1000.29
2016-09-06T10:41:33.220Z,1000.29
2016-09-06T10:42:33.223Z,1000.22
2016-09-06T10:43:33.229Z,1000.24
2016-09-06T10:44:33.231Z,1000.21
2016-09-06T10:45:33.235Z,1000.22
2016-09-06T10:46:33.238Z,1000.18
2016-09-06T10:47:33.251Z,1000.19
2016-09-06T10:48:33.249Z,1000.2
2016-09-06T10:49:33.253Z,1000.21
2016-09-06T10:50:33.255Z,1000.19
2016-09-06T10:51:33.256Z,1000.16
2016-09-06T10:52:33.260Z,1000.21
2016-09-06T10:53:33.265Z,1000.2
2016-09-06T10:54:33.268Z,1000.12
2016-09-06T10:55:33.271Z,1000.17
2016-09-06T10:56:33.278Z,1000.21
2016-09-06T10:57:33.279Z,1000.21
2016-09-06T10:58:33.286Z,1000.19
2016-09-06T10:59:33.290Z,1000.28
2016-09-06T11:00:33.296Z,1000.27
2016-09-06T11:01:33.675Z,1000.29
2016-09-06T11:02:33.677Z,1000.33
2016-09-06T11:03:33.623Z,1000.31
2016-09-06T11:04:33.430Z,1000.23
2016-09-06T11:05:33.429Z,1000.25
2016-09-06T11:06:33.317Z,1000.29
2016-09-06T11:07:33.555Z,1000.28
2016-09-06T11:08:33.672Z,1000.26
2016-09-06T11:09:33.321Z,1000.21
2016-09-06T11:10:33.326Z,1000.23
2016-09-06T11:11:33.620Z,1000.27
2016-09-06T11:12:33.334Z,1000.17
2016-09-06T11:13:33.506Z,1000.16
2016-09-06T11:14:33.683Z,1000.06
2016-09-06T11:15:33.394Z,1000
2016-09-06T11:16:33.460Z,1000.2
2016-09-06T11:17:33.668Z,1000.19
2016-09-06T11:18:33.521Z,1000.14
2016-09-06T11:19:33.693Z,1000.18
2016-09-06T11:20:33.384Z,1000.12
2016-09-06T11:21:33.455Z,1000.07
2016-09-06T11:22:33.583Z,1000.08
2016-09-06T11:23:33.479Z,1000.1
2016-09-06T11:24:33.488Z,1000.07
2016-09-06T11:25:33.406Z,1000.05
2016-09-06T11:26:33.392Z,1000.01
2016-09-06T11:27:33.398Z,999.95
2016-09-06T11:28:33.404Z,999.96
2016-09-06T11:29:33.407Z,1000
2016-09-06T11:30:33.411Z,1000.02
2016-09-06T11:31:33.416Z,999.98
2016-09-06T11:32:33.420Z,1000.02
2016-09-06T11:33:33.423Z,1000.03
2016-09-06T11:34:34.379Z,1000
2016-09-06T11:35:33.433Z,999.98
2016-09-06T11:36:33.436Z,1000.05
2016-09-06T11:37:33.441Z,1000.05
2016-09-06T11:38:33.445Z,1000.07
2016-09-06T11:39:33.449Z,1000.02
2016-09-06T11:40:33.454Z,1000.01
2016-09-06T11:41:33.455Z,1000.06
2016-09-06T11:42:33.463Z,999.97
2016-09-06T11:43:33.464Z,1000.03
2016-09-06T11:44:33.468Z,999.98
2016-09-06T11:45:33.473Z,999.93
2016-09-06T11:46:33.477Z,999.92
2016-09-06T11:47:33.480Z,999.86
2016-09-06T11:48:33.485Z,999.88
2016-09-06T11:49:33.488Z,999.89
2016-09-06T11:50:33.493Z,999.88
2016-09-06T11:51:33.497Z,999.82
2016-09-06T11:52:33.500Z,999.86
2016-09-06T11:53:33.504Z,999.9
2016-09-06T11:54:33.509Z,999.87
2016-09-06T11:55:33.513Z,999.85
2016-09-06T11:56:33.516Z,999.87
2016-09-06T11:57:33.520Z,999.82
2016-09-06T11:58:33.525Z,999.84
2016-09-06T11:59:33.531Z,999.84
2016-09-06T12:00:33.534Z,999.75
2016-09-06T12:01:33.538Z,999.74
2016-09-06T12:02:33.542Z,999.79
2016-09-06T12:03:33.566Z,999.69
2016-09-06T12:04:33.554Z,999.67
2016-09-06T12:05:33.557Z,999.63
2016-09-06T12:06:33.559Z,999.63
2016-09-06T12:07:33.564Z,999.65
2016-09-06T12:08:33.567Z,999.68
2016-09-06T12:09:33.571Z,999.63
2016-09-06T12:10:33.576Z,999.66
2016-09-06T12:11:33.586Z,999.67
2016-09-06T12:12:33.584Z,999.68
2016-09-06T12:13:33.599Z,999.64
2016-09-06T12:14:33.606Z,999.64
2016-09-06T12:15:33.603Z,999.56
2016-09-06T12:16:33.602Z,999.63
2016-09-06T12:17:33.606Z,999.74